Time;durP1;ratioP1;P1;durP2;ratioP2;P2;SDS_P1;SDS_P2;PMS_P1;PMS_P2;Temp;Humidity;BMP_temperature;BMP_pressure;BME280_temperature;BME280_humidity;BME280_pressure;Samples;Min_cycle;Max_cycle;Signal;HPM_P1;HPM_P2
2022/03/02 00:01:17;;;;;;;15.93;12.93;;;;;;;-1.85;81.43;96577.75;5031494;28;24474;-73
2022/03/02 00:03:44;;;;;;;16.77;12.27;;;;;;;-1.96;82.81;96573.53;5031309;28;24420;-72
2022/03/02 00:06:10;;;;;;;12.45;11.15;;;;;;;-1.90;83.30;96576.91;5031187;28;24420;-73
2022/03/02 00:08:37;;;;;;;18.92;13.20;;;;;;;-1.85;83.87;96576.06;5030717;28;25114;-72
2022/03/02 00:11:04;;;;;;;19.95;13.35;;;;;;;-1.82;83.38;96568.41;5030829;28;24824;-72
2022/03/02 00:13:31;;;;;;;19.85;13.35;;;;;;;-1.66;82.04;96561.63;5030962;28;24965;-73
2022/03/02 00:15:57;;;;;;;20.13;13.38;;;;;;;-1.77;83.03;96563.34;5030942;28;25007;-73
2022/03/02 00:18:26;;;;;;;15.65;12.95;;;;;;;-1.88;81.86;96562.53;5030704;28;24427;-73
2022/03/02 00:20:53;;;;;;;17.20;13.32;;;;;;;-1.89;82.81;96569.31;5030419;28;24440;-73
2022/03/02 00:23:19;;;;;;;16.10;12.88;;;;;;;-1.81;82.73;96582.81;5030300;28;24450;-73
2022/03/02 00:25:46;;;;;;;15.13;11.43;;;;;;;-1.71;82.02;96571.81;5029989;28;24949;-73
2022/03/02 00:28:13;;;;;;;16.85;12.20;;;;;;;-1.63;81.81;96574.34;5030130;28;24489;-73
2022/03/02 00:30:39;;;;;;;16.80;13.18;;;;;;;-1.52;81.98;96564.13;5030143;28;24440;-73
2022/03/02 00:33:07;;;;;;;19.50;12.93;;;;;;;-1.57;83.09;96573.47;5030058;28;25003;-72
2022/03/02 00:35:35;;;;;;;18.13;12.70;;;;;;;-1.55;83.34;96571.78;5030745;28;24822;-73
2022/03/02 00:38:02;;;;;;;14.43;12.05;;;;;;;-1.53;82.87;96580.22;5030468;28;24424;-73
2022/03/02 00:40:30;;;;;;;15.73;12.68;;;;;;;-1.45;82.10;96573.41;5030545;28;24511;-72
2022/03/02 00:42:57;;;;;;;20.85;13.38;;;;;;;-1.42;82.06;96570.03;5030946;28;24416;-73
2022/03/02 00:45:25;;;;;;;24.33;14.88;;;;;;;-1.40;82.54;96568.34;5030470;28;25274;-72
2022/03/02 00:47:52;;;;;;;15.65;13.55;;;;;;;-1.58;83.99;96576.84;5030418;28;24526;-73
2022/03/02 00:50:19;;;;;;;16.70;14.13;;;;;;;-1.57;83.66;96578.53;5030453;28;24446;-72
2022/03/02 00:52:48;;;;;;;19.45;17.17;;;;;;;-1.47;83.03;96583.59;5030213;28;24846;-72
2022/03/02 00:55:15;;;;;;;21.27;13.93;;;;;;;-1.67;81.21;96582.78;5030680;28;24427;-73
2022/03/02 00:57:41;;;;;;;18.85;12.15;;;;;;;-1.63;81.21;96581.94;5030557;28;24806;-73
2022/03/02 01:00:09;;;;;;;17.88;12.52;;;;;;;-1.56;80.32;96570.94;5030464;28;25046;-73
2022/03/02 01:02:36;;;;;;;17.55;12.73;;;;;;;-1.49;80.66;96564.09;5030345;28;24416;-73
2022/03/02 01:05:04;;;;;;;15.75;11.52;;;;;;;-1.50;80.55;96558.19;5030537;28;24470;-73
2022/03/02 01:07:30;;;;;;;12.35;10.70;;;;;;;-1.55;80.50;96554.00;5032268;28;24420;-72
2022/03/02 01:09:59;;;;;;;15.95;10.23;;;;;;;-1.70;80.42;96552.34;5034683;28;24486;-73
2022/03/02 01:12:25;;;;;;;14.70;10.68;;;;;;;-1.71;80.45;96550.63;5034261;28;24984;-73
2022/03/02 01:14:52;;;;;;;12.52;10.00;;;;;;;-1.66;80.72;96541.31;5034386;28;25042;-73
2022/03/02 01:17:20;;;;;;;12.68;10.23;;;;;;;-1.62;80.36;96532.00;5034215;28;24423;-73
2022/03/02 01:19:47;;;;;;;12.23;9.43;;;;;;;-1.61;80.68;96529.44;5034163;28;24442;-73
2022/03/02 01:22:14;;;;;;;12.00;9.85;;;;;;;-1.54;80.99;96520.94;5033996;28;24942;-72
2022/03/02 01:24:40;;;;;;;12.43;10.68;;;;;;;-1.52;80.83;96520.94;5034389;28;24778;-72
2022/03/02 01:27:08;;;;;;;13.43;11.38;;;;;;;-1.53;81.37;96514.16;5033291;28;25100;-72
2022/03/02 01:29:35;;;;;;;15.32;11.50;;;;;;;-1.52;81.30;96515.84;5033377;28;24424;-73
2022/03/02 01:32:04;;;;;;;14.93;12.02;;;;;;;-1.57;81.78;96520.13;5033378;28;24427;-72
2022/03/02 01:34:31;;;;;;;11.68;9.48;;;;;;;-1.55;81.41;96511.66;5033494;28;24501;-72
2022/03/02 01:36:57;;;;;;;11.10;9.93;;;;;;;-1.41;79.97;96503.09;5034058;28;24490;-73
2022/03/02 01:39:24;;;;;;;12.27;10.98;;;;;;;-1.43;80.31;96500.59;5034081;28;24427;-73
2022/03/02 01:41:51;;;;;;;16.33;10.75;;;;;;;-1.52;80.85;96501.47;5033857;28;24423;-73
2022/03/02 01:44:19;;;;;;;12.85;10.93;;;;;;;-1.55;81.32;96505.72;5034124;28;24420;-72
2022/03/02 01:46:46;;;;;;;15.85;10.13;;;;;;;-1.62;81.55;96486.28;5033837;28;24509;-72
2022/03/02 01:49:13;;;;;;;12.63;10.15;;;;;;;-1.58;80.84;96485.41;5033454;28;24428;-73
2022/03/02 01:51:39;;;;;;;12.37;9.37;;;;;;;-1.58;80.75;96472.72;5033205;28;24436;-73
2022/03/02 01:54:07;;;;;;;13.57;10.00;;;;;;;-1.58;80.86;96475.25;5033028;28;24444;-73
2022/03/02 01:56:34;;;;;;;14.30;10.48;;;;;;;-1.60;80.75;96477.78;5033019;28;24424;-73
2022/03/02 01:59:01;;;;;;;18.15;11.30;;;;;;;-1.89;80.42;96477.03;5033089;28;24419;-73
2022/03/02 02:01:29;;;;;;;13.68;10.32;;;;;;;-1.87;81.34;96468.56;5033646;28;24431;-73
2022/03/02 02:03:56;;;;;;;15.25;11.65;;;;;;;-1.80;80.74;96467.69;5033204;28;24750;-73
2022/03/02 02:06:23;;;;;;;14.23;10.43;;;;;;;-1.81;81.57;96467.72;5032759;28;24458;-72
2022/03/02 02:08:50;;;;;;;15.38;10.73;;;;;;;-1.79;81.72;96460.94;5032724;28;24424;-73
2022/03/02 02:11:16;;;;;;;15.10;11.45;;;;;;;-1.78;81.70;96462.59;5032845;28;24633;-72
2022/03/02 02:13:43;;;;;;;15.05;10.45;;;;;;;-1.75;81.14;96465.13;5032499;28;24444;-72
2022/03/02 02:16:09;;;;;;;12.68;10.32;;;;;;;-1.76;80.14;96471.06;5032465;28;24412;-73
2022/03/02 02:18:37;;;;;;;14.15;10.55;;;;;;;-1.96;80.27;96469.44;5031444;28;24782;-72
2022/03/02 02:21:07;;;;;;;12.80;9.73;;;;;;;-1.97;81.29;96472.81;5032307;28;25037;-73
2022/03/02 02:23:34;;;;;;;13.38;9.88;;;;;;;-1.94;81.02;96464.34;5032783;28;24427;-72
2022/03/02 02:26:00;;;;;;;15.15;10.75;;;;;;;-1.93;80.73;96455.88;5032562;28;24419;-73
2022/03/02 02:28:28;;;;;;;11.68;9.68;;;;;;;-1.90;81.65;96466.03;5032203;28;24968;-72
2022/03/02 02:30:57;;;;;;;11.48;9.23;;;;;;;-1.92;80.97;96465.22;5032215;28;24415;-72
2022/03/02 02:33:25;;;;;;;10.88;9.65;;;;;;;-1.97;81.32;96466.91;5032008;28;24431;-73
2022/03/02 02:35:51;;;;;;;10.18;9.13;;;;;;;-1.93;80.99;96462.66;5033129;28;24782;-73
2022/03/02 02:38:21;;;;;;;12.73;10.48;;;;;;;-1.86;80.84;96460.09;5032939;28;24493;-73
2022/03/02 02:40:48;;;;;;;13.00;9.70;;;;;;;-2.04;80.94;96458.47;5033163;28;24435;-73
2022/03/02 02:43:16;;;;;;;11.50;9.30;;;;;;;-2.00;81.07;96456.78;5033193;28;24424;-73
2022/03/02 02:45:43;;;;;;;10.13;9.00;;;;;;;-2.01;81.35;96452.53;5032662;28;24427;-72
2022/03/02 02:48:10;;;;;;;17.63;10.15;;;;;;;-2.13;81.10;96455.09;5032584;28;24435;-72
2022/03/02 02:50:36;;;;;;;12.43;10.13;;;;;;;-2.14;81.29;96448.34;5032803;28;24423;-72
2022/03/02 02:53:06;;;;;;;12.38;10.18;;;;;;;-2.31;81.69;96451.75;5032753;28;24424;-72
2022/03/02 02:55:35;;;;;;;14.45;10.02;;;;;;;-2.47;82.65;96455.16;5032506;28;24440;-72
2022/03/02 02:58:03;;;;;;;15.27;10.68;;;;;;;-2.54;83.44;96454.31;5032492;28;24485;-72
2022/03/02 03:00:31;;;;;;;16.27;10.75;;;;;;;-2.48;82.96;96456.03;5032517;28;24416;-72
2022/03/02 03:03:00;;;;;;;11.90;9.25;;;;;;;-2.38;82.78;96449.22;5032598;28;24416;-72
2022/03/02 03:05:29;;;;;;;11.63;9.63;;;;;;;-2.24;81.94;96450.06;5032411;28;24423;-72
2022/03/02 03:07:56;;;;;;;12.00;9.55;;;;;;;-2.21;80.89;96437.38;5032865;28;24474;-72
2022/03/02 03:10:25;;;;;;;12.18;9.75;;;;;;;-2.27;80.41;96435.66;5032190;28;24428;-72
2022/03/02 03:12:54;;;;;;;11.88;9.63;;;;;;;-2.38;81.04;96428.94;5032436;28;24511;-72
2022/03/02 03:15:22;;;;;;;14.88;10.25;;;;;;;-2.52;81.86;96434.88;5032262;28;24456;-72
2022/03/02 03:17:49;;;;;;;12.35;9.88;;;;;;;-2.53;82.43;96434.88;5032079;28;24432;-72
2022/03/02 03:20:18;;;;;;;10.82;9.63;;;;;;;-2.43;82.01;96431.47;5032158;28;24427;-72
2022/03/02 03:22:45;;;;;;;13.50;9.90;;;;;;;-2.44;81.91;96430.66;5031979;28;24411;-72
2022/03/02 03:25:13;;;;;;;11.02;9.40;;;;;;;-2.44;81.97;96439.94;5031951;28;24404;-72
2022/03/02 03:27:41;;;;;;;14.15;10.10;;;;;;;-2.34;80.77;96431.44;5031867;28;24706;-72
2022/03/02 03:30:11;;;;;;;13.98;10.80;;;;;;;-2.44;82.12;96423.03;5031652;28;24427;-72
2022/03/02 03:32:38;;;;;;;16.33;10.82;;;;;;;-2.47;82.91;96424.72;5031603;28;24431;-72
2022/03/02 03:35:06;;;;;;;14.57;11.05;;;;;;;-2.47;82.50;96425.56;5031562;28;24447;-72
2022/03/02 03:37:32;;;;;;;15.32;10.95;;;;;;;-2.47;82.27;96427.25;5031186;28;24478;-72
2022/03/02 03:39:59;;;;;;;12.27;10.88;;;;;;;-2.50;82.81;96419.66;5031870;28;24473;-72
2022/03/02 03:42:26;;;;;;;13.10;10.00;;;;;;;-2.50;82.85;96422.19;5031575;28;24419;-72
2022/03/02 03:44:53;;;;;;;13.15;10.18;;;;;;;-2.50;82.74;96414.59;5031234;28;24825;-72
2022/03/02 03:47:21;;;;;;;11.32;9.40;;;;;;;-2.50;82.80;96420.50;5031577;28;24474;-72
2022/03/02 03:49:47;;;;;;;14.38;9.77;;;;;;;-2.46;82.72;96418.81;5031694;28;24427;-71
2022/03/02 03:52:14;;;;;;;14.93;10.43;;;;;;;-2.50;82.45;96417.97;5031257;28;24427;-72
2022/03/02 03:54:40;;;;;;;16.08;11.60;;;;;;;-2.50;82.59;96423.03;5031494;28;24470;-72
2022/03/02 03:57:07;;;;;;;17.05;12.68;;;;;;;-2.51;83.23;96421.34;5031263;28;24482;-72
2022/03/02 03:59:34;;;;;;;14.38;11.07;;;;;;;-2.54;83.54;96412.91;5031197;28;24481;-72
2022/03/02 04:02:01;;;;;;;13.45;10.00;;;;;;;-2.55;83.67;96422.22;5031273;28;24424;-72
2022/03/02 04:04:28;;;;;;;15.70;10.07;;;;;;;-2.53;82.92;96423.03;5031205;28;24419;-72
2022/03/02 04:06:55;;;;;;;11.82;10.57;;;;;;;-2.73;84.22;96424.75;5030964;28;25007;-72
2022/03/02 04:09:22;;;;;;;13.95;11.05;;;;;;;-2.84;84.85;96413.78;5031088;28;24431;-72
2022/03/02 04:11:48;;;;;;;14.20;10.75;;;;;;;-2.94;85.09;96413.75;5030853;28;24474;-72
2022/03/02 04:14:15;;;;;;;13.15;9.75;;;;;;;-2.92;85.73;96413.78;5030963;28;24448;-72
2022/03/02 04:16:41;;;;;;;12.18;9.38;;;;;;;-2.88;85.40;96409.56;5030710;28;24416;-72
2022/03/02 04:19:08;;;;;;;14.90;10.73;;;;;;;-2.89;84.90;96408.72;5031034;28;24424;-69
2022/03/02 04:21:35;;;;;;;11.40;10.07;;;;;;;-2.97;86.46;96403.63;5030798;28;24491;-71
2022/03/02 04:24:02;;;;;;;16.17;10.03;;;;;;;-2.91;86.40;96407.84;5030971;28;24513;-72
2022/03/02 04:26:28;;;;;;;14.05;9.55;;;;;;;-2.94;85.82;96393.47;5030734;28;24951;-72
2022/03/02 04:28:55;;;;;;;12.55;9.48;;;;;;;-2.97;85.80;96398.56;5030963;28;24466;-72
2022/03/02 04:31:21;;;;;;;13.05;9.95;;;;;;;-3.02;85.27;96397.72;5030776;28;24854;-72
2022/03/02 04:33:48;;;;;;;13.50;9.90;;;;;;;-3.11;85.72;96385.06;5030824;28;24424;-72
2022/03/02 04:36:14;;;;;;;16.25;9.80;;;;;;;-3.09;85.85;96383.34;5030892;28;24486;-72
2022/03/02 04:38:42;;;;;;;13.70;9.68;;;;;;;-3.08;86.50;96385.03;5030423;28;24420;-72
2022/03/02 04:41:09;;;;;;;10.90;9.60;;;;;;;-3.10;86.42;96381.66;5029932;28;24419;-72
2022/03/02 04:43:35;;;;;;;12.98;9.85;;;;;;;-3.12;86.84;96375.75;5030509;28;24481;-73
2022/03/02 04:46:02;;;;;;;12.90;9.82;;;;;;;-2.99;85.42;96371.53;5030397;28;24469;-73
2022/03/02 04:48:29;;;;;;;11.25;10.05;;;;;;;-3.10;85.65;96370.69;5029372;28;25004;-73
2022/03/02 04:50:56;;;;;;;13.80;10.70;;;;;;;-3.21;87.33;96374.06;5030464;28;24523;-73
2022/03/02 04:53:24;;;;;;;18.52;10.60;;;;;;;-3.33;87.21;96366.47;5029925;28;24481;-72
2022/03/02 04:55:52;;;;;;;13.18;9.68;;;;;;;-3.36;86.98;96366.47;5030035;28;24450;-72
2022/03/02 04:58:19;;;;;;;12.93;9.43;;;;;;;-3.41;87.24;96361.41;5029471;28;24435;-72
2022/03/02 05:00:46;;;;;;;11.75;9.68;;;;;;;-3.26;86.53;96358.03;5030195;28;24474;-72
2022/03/02 05:03:12;;;;;;;13.68;10.63;;;;;;;-3.21;86.00;96358.03;5030628;28;24427;-72
2022/03/02 05:05:39;;;;;;;14.25;10.93;;;;;;;-3.29;86.76;96352.13;5030465;28;24426;-72
2022/03/02 05:08:07;;;;;;;15.32;11.45;;;;;;;-3.39;86.70;96356.31;5030309;28;24474;-72
2022/03/02 05:10:35;;;;;;;43.42;10.95;;;;;;;-3.39;87.40;96358.84;5030187;28;24786;-72
2022/03/02 05:13:03;;;;;;;13.85;9.55;;;;;;;-3.43;88.50;96354.63;5054161;23;24860;-66
2022/03/02 05:15:30;;;;;;;15.38;10.40;;;;;;;-3.51;89.40;96356.31;5029770;28;24451;-66
2022/03/02 05:17:57;;;;;;;14.48;10.23;;;;;;;-3.59;89.71;96350.41;5029604;28;24531;-66
2022/03/02 05:20:23;;;;;;;11.98;9.70;;;;;;;-3.62;90.67;96355.47;5030140;28;24979;-67
2022/03/02 05:22:50;;;;;;;13.82;10.13;;;;;;;-3.65;90.80;96351.22;5030307;28;24422;-66
2022/03/02 05:25:17;;;;;;;12.70;9.27;;;;;;;-3.54;90.82;96353.78;5030328;28;24418;-67
2022/03/02 05:27:44;;;;;;;10.05;9.00;;;;;;;-3.47;90.64;96363.06;5029899;28;24963;-66
2022/03/02 05:30:13;;;;;;;13.05;9.90;;;;;;;-3.37;90.49;96364.78;5029776;28;24435;-70
2022/03/02 05:32:40;;;;;;;15.30;10.57;;;;;;;-3.35;89.75;96352.94;5029960;28;25022;-70
2022/03/02 05:35:08;;;;;;;16.40;12.23;;;;;;;-3.26;89.72;96358.03;5029963;28;24514;-70
2022/03/02 05:37:34;;;;;;;20.77;13.53;;;;;;;-3.26;88.53;96355.50;5029984;28;24471;-69
2022/03/02 05:40:02;;;;;;;15.63;12.13;;;;;;;-3.23;88.95;96345.34;5029996;28;24453;-71
2022/03/02 05:42:28;;;;;;;13.98;10.98;;;;;;;-3.23;88.59;96340.28;5029518;28;24424;-74
2022/03/02 05:44:55;;;;;;;15.23;10.98;;;;;;;-3.16;88.77;96341.97;5029758;28;24941;-70
2022/03/02 05:47:22;;;;;;;14.88;11.45;;;;;;;-3.26;87.26;96345.38;5029919;28;24814;-70
2022/03/02 05:49:50;;;;;;;13.10;10.95;;;;;;;-3.56;90.82;96341.13;5029983;28;24424;-70
2022/03/02 05:52:17;;;;;;;17.85;12.75;;;;;;;-3.66;92.92;96347.84;5028666;28;24431;-70
2022/03/02 05:54:44;;;;;;;14.30;11.07;;;;;;;-3.59;92.87;96341.13;5033176;28;24455;-70
2022/03/02 05:57:10;;;;;;;15.20;10.40;;;;;;;-3.52;92.13;96344.47;5032953;28;24450;-70
2022/03/02 05:59:37;;;;;;;18.35;9.13;;;;;;;-3.40;92.33;96341.97;5033033;28;24458;-70
2022/03/02 06:02:04;;;;;;;12.45;9.10;;;;;;;-3.33;90.99;96342.84;5033253;28;24428;-70
2022/03/02 06:04:31;;;;;;;12.40;9.50;;;;;;;-3.43;91.80;96349.56;5032883;28;24870;-70
2022/03/02 06:06:58;;;;;;;12.68;9.70;;;;;;;-3.32;91.37;96350.41;5032725;28;25103;-69
2022/03/02 06:09:25;;;;;;;16.05;9.45;;;;;;;-3.25;91.19;96349.56;5032449;28;24427;-70
2022/03/02 06:11:52;;;;;;;14.23;9.77;;;;;;;-3.23;90.49;96345.34;5032893;28;24427;-70
2022/03/02 06:14:19;;;;;;;13.70;9.68;;;;;;;-3.29;91.01;96355.50;5033354;28;24431;-70
2022/03/02 06:16:46;;;;;;;12.63;10.13;;;;;;;-3.29;91.43;96347.88;5033305;28;24449;-70
2022/03/02 06:19:14;;;;;;;16.15;11.30;;;;;;;-3.21;91.44;96350.41;5032787;28;25011;-70
2022/03/02 06:21:44;;;;;;;16.47;10.57;;;;;;;-3.20;91.23;96344.50;5033065;28;24513;-70
2022/03/02 06:24:13;;;;;;;15.45;10.45;;;;;;;-3.22;91.27;96344.50;5032926;28;24439;-70
2022/03/02 06:26:40;;;;;;;11.57;10.10;;;;;;;-3.18;91.74;96348.75;5033300;28;24416;-70
2022/03/02 06:29:06;;;;;;;14.18;10.80;;;;;;;-3.12;92.31;96354.63;5032961;28;24420;-70
2022/03/02 06:31:33;;;;;;;15.70;11.07;;;;;;;-3.07;91.98;96345.38;5033107;28;24432;-71
2022/03/02 06:34:01;;;;;;;15.98;10.85;;;;;;;-2.96;91.76;96344.50;5032885;28;24431;-71
2022/03/02 06:36:27;;;;;;;16.67;11.98;;;;;;;-2.96;91.75;96338.59;5025543;28;25016;-71
2022/03/02 06:38:55;;;;;;;15.15;11.70;;;;;;;-3.06;93.27;96345.34;5012619;28;25004;-71
2022/03/02 06:41:29;;;;;;;16.73;11.30;;;;;;;-3.02;93.31;96338.59;5013020;28;24420;-70
2022/03/02 06:44:01;;;;;;;19.15;11.90;;;;;;;-2.97;93.77;96336.88;5012894;28;24428;-71
2022/03/02 06:46:32;;;;;;;15.55;11.10;;;;;;;-2.91;93.33;96336.88;5012827;28;24519;-71
2022/03/02 06:49:03;;;;;;;16.48;11.73;;;;;;;-2.84;93.68;96330.97;5012598;28;24512;-71
2022/03/02 06:51:32;;;;;;;15.68;11.20;;;;;;;-2.77;93.49;96340.25;5014485;28;24518;-71
2022/03/02 06:54:05;;;;;;;12.95;10.50;;;;;;;-2.70;93.55;96333.50;5017617;28;24867;-71
2022/03/02 06:56:40;;;;;;;14.85;10.80;;;;;;;-2.62;93.14;96348.69;5016967;28;24479;-71
2022/03/02 06:59:12;;;;;;;12.38;11.02;;;;;;;-2.62;93.35;96348.69;5013262;28;24516;-71
2022/03/02 07:01:44;;;;;;;15.25;11.45;;;;;;;-2.56;93.54;96343.56;5012818;28;24520;-71
2022/03/02 07:04:13;;;;;;;17.17;12.88;;;;;;;-2.45;93.39;96346.94;5012149;28;24511;-70
2022/03/02 07:06:40;;;;;;;19.95;13.32;;;;;;;-2.50;94.68;96348.63;5012391;28;25013;-71
2022/03/02 07:09:09;;;;;;;20.10;13.02;;;;;;;-2.57;95.31;96349.50;5012271;28;24423;-70
2022/03/02 07:11:35;;;;;;;15.68;13.52;;;;;;;-2.43;94.43;96342.72;5012153;28;24814;-69
2022/03/02 07:14:02;;;;;;;24.45;12.88;;;;;;;-2.44;94.56;96349.47;5012075;28;24941;-69
2022/03/02 07:16:29;;;;;;;17.60;13.13;;;;;;;-2.51;96.33;96350.34;5012401;28;24502;-69
2022/03/02 07:18:56;;;;;;;14.85;11.85;;;;;;;-2.49;96.16;96348.63;5012176;28;24551;-69
2022/03/02 07:21:26;;;;;;;16.48;12.60;;;;;;;-2.41;96.53;96351.16;5011913;28;24953;-69
2022/03/02 07:23:56;;;;;;;18.42;12.75;;;;;;;-2.29;97.44;96351.13;5012083;28;24423;-74
2022/03/02 07:26:24;;;;;;;15.25;11.93;;;;;;;-2.06;94.40;96355.25;5012034;28;25013;-69
2022/03/02 07:28:51;;;;;;;23.95;12.38;;;;;;;-1.99;94.59;96355.22;5011679;28;24424;-70
2022/03/02 07:31:19;;;;;;;20.55;12.90;;;;;;;-1.76;94.03;96346.66;5012068;28;24427;-69
2022/03/02 07:33:46;;;;;;;17.25;12.82;;;;;;;-1.68;95.65;96339.00;5012270;28;24450;-69
2022/03/02 07:36:13;;;;;;;14.18;11.50;;;;;;;-1.64;94.54;96346.56;5011880;28;24443;-70
2022/03/02 07:38:40;;;;;;;14.63;12.07;;;;;;;-1.67;95.77;96338.13;5011796;28;24740;-71
2022/03/02 07:41:07;;;;;;;13.63;10.82;;;;;;;-1.61;94.87;96343.19;5011645;28;24778;-71
2022/03/02 07:43:36;;;;;;;16.75;11.93;;;;;;;-1.67;91.04;96345.75;5011507;28;24419;-71
2022/03/02 07:46:04;;;;;;;14.48;11.52;;;;;;;-1.55;91.26;96348.22;5011789;28;24500;-71
2022/03/02 07:48:30;;;;;;;17.25;12.15;;;;;;;-1.48;90.23;96350.72;5011763;28;24451;-71
2022/03/02 07:50:57;;;;;;;14.98;12.68;;;;;;;-1.43;88.58;96354.94;5011844;28;24515;-71
2022/03/02 07:53:27;;;;;;;14.70;11.10;;;;;;;-1.26;88.35;96348.00;5011594;28;24994;-72
2022/03/02 07:55:54;;;;;;;16.83;11.55;;;;;;;-1.17;87.24;96349.66;5011151;28;24440;-71
2022/03/02 07:58:22;;;;;;;14.33;10.83;;;;;;;-1.12;86.46;96351.28;5011567;28;24518;-71
2022/03/02 08:00:52;;;;;;;15.57;11.65;;;;;;;-1.03;86.57;96350.41;5011727;28;24436;-73
2022/03/02 08:03:19;;;;;;;14.93;11.65;;;;;;;-1.04;85.00;96346.16;5010947;28;24672;-72
2022/03/02 08:05:46;;;;;;;18.38;12.07;;;;;;;-1.20;86.08;96355.59;5011161;28;24467;-71
2022/03/02 08:08:13;;;;;;;16.90;12.57;;;;;;;-1.43;87.78;96355.75;5010837;28;24949;-72
2022/03/02 08:10:42;;;;;;;17.10;11.65;;;;;;;-1.36;87.94;96359.94;5011177;28;24949;-72
2022/03/02 08:13:08;;;;;;;19.83;12.50;;;;;;;-1.31;88.16;96353.13;5011087;28;24428;-71
2022/03/02 08:15:35;;;;;;;16.40;12.45;;;;;;;-1.10;87.32;96353.84;5011008;28;24506;-71
2022/03/02 08:18:03;;;;;;;17.92;12.57;;;;;;;-0.99;88.24;96349.50;5011004;28;24420;-71
2022/03/02 08:20:32;;;;;;;15.10;11.63;;;;;;;-0.82;88.57;96350.19;5011083;28;24478;-71
2022/03/02 08:23:02;;;;;;;19.42;12.00;;;;;;;-0.69;87.11;96338.22;5010738;28;24482;-71
2022/03/02 08:25:30;;;;;;;20.55;12.43;;;;;;;-0.56;85.54;96334.66;5011082;28;24417;-70
2022/03/02 08:27:59;;;;;;;14.90;11.73;;;;;;;-0.44;86.31;96332.88;5010715;28;24950;-70
2022/03/02 08:30:30;;;;;;;13.80;11.75;;;;;;;-0.36;84.68;96336.19;5011063;28;24513;-70
2022/03/02 08:32:58;;;;;;;16.13;11.27;;;;;;;-0.31;83.91;96330.16;5011038;28;24499;-71
2022/03/02 08:35:27;;;;;;;21.45;11.77;;;;;;;-0.32;82.27;96337.84;5010544;28;24419;-71
2022/03/02 08:37:53;;;;;;;17.58;11.82;;;;;;;-0.16;81.91;96335.94;5010594;28;24942;-71
2022/03/02 08:40:20;;;;;;;13.30;11.48;;;;;;;-0.07;82.67;96318.03;5010780;28;24838;-71
2022/03/02 08:42:47;;;;;;;17.40;13.05;;;;;;;0.28;88.43;96316.72;5010744;28;24431;-71
2022/03/02 08:45:13;;;;;;;17.15;13.15;;;;;;;0.44;90.17;96307.97;5010713;28;24420;-71
2022/03/02 08:47:40;;;;;;;16.73;12.60;;;;;;;0.38;91.44;96311.47;5010474;28;24427;-72
2022/03/02 08:50:07;;;;;;;14.60;12.85;;;;;;;0.46;91.11;96316.47;5010889;28;24779;-71
2022/03/02 08:52:35;;;;;;;16.65;12.95;;;;;;;0.67;93.86;96310.22;5010714;28;24439;-71
2022/03/02 08:55:05;;;;;;;18.50;13.82;;;;;;;0.79;94.13;96310.00;5010600;28;24499;-70
2022/03/02 08:57:32;;;;;;;18.25;13.32;;;;;;;0.62;92.25;96309.41;5010344;28;24445;-71
2022/03/02 08:59:59;;;;;;;21.38;13.88;;;;;;;0.62;90.16;96311.97;5010763;28;24424;-71
2022/03/02 09:02:29;;;;;;;16.38;13.38;;;;;;;0.52;86.98;96318.06;5010365;28;24424;-71
2022/03/02 09:05:00;;;;;;;14.90;12.60;;;;;;;0.60;87.28;96322.19;5011011;28;24619;-71
2022/03/02 09:07:26;;;;;;;24.50;13.50;;;;;;;0.72;88.77;96321.16;5010569;28;24475;-72
2022/03/02 09:09:54;;;;;;;24.63;15.40;;;;;;;0.62;85.97;96324.72;5010343;28;24790;-71
2022/03/02 09:12:21;;;;;;;22.63;14.90;;;;;;;0.71;84.99;96333.06;5010335;28;24429;-71
2022/03/02 09:14:49;;;;;;;18.27;14.20;;;;;;;0.84;84.67;96332.88;5009887;28;24474;-72
2022/03/02 09:17:17;;;;;;;18.98;14.07;;;;;;;0.86;84.41;96331.16;5010078;28;24948;-72
2022/03/02 09:19:43;;;;;;;14.73;13.13;;;;;;;0.90;84.81;96332.78;5009960;28;24424;-72
2022/03/02 09:22:10;;;;;;;15.02;12.55;;;;;;;1.01;84.75;96325.81;5010527;28;24552;-72
2022/03/02 09:24:38;;;;;;;22.80;13.23;;;;;;;1.13;84.80;96322.22;5010205;28;24563;-72
2022/03/02 09:27:08;;;;;;;16.70;12.90;;;;;;;1.28;86.46;96310.91;5010706;28;24849;-72
2022/03/02 09:29:36;;;;;;;14.65;12.68;;;;;;;1.44;83.44;96317.38;5014422;28;24436;-72
2022/03/02 09:32:04;;;;;;;16.87;12.00;;;;;;;1.52;81.35;96318.13;5014384;28;24519;-71
2022/03/02 09:34:31;;;;;;;15.48;11.60;;;;;;;1.54;77.17;96313.81;5013767;28;25186;-72
2022/03/02 09:36:59;;;;;;;14.43;11.68;;;;;;;1.66;77.61;96307.63;5014313;28;24440;-71
2022/03/02 09:39:26;;;;;;;15.55;11.70;;;;;;;1.87;73.08;96306.38;5013781;28;24486;-72
2022/03/02 09:42:00;;;;;;;15.38;12.13;;;;;;;1.90;73.15;96308.88;5013824;28;24428;-72
2022/03/02 09:44:32;;;;;;;15.60;12.10;;;;;;;1.95;72.90;96307.06;5014036;28;24949;-71
2022/03/02 09:47:01;;;;;;;14.38;11.38;;;;;;;1.90;67.81;96306.31;5013843;28;25237;-71
2022/03/02 09:49:31;;;;;;;18.90;12.40;;;;;;;1.86;66.87;96307.25;5013756;28;24475;-72
2022/03/02 09:52:03;;;;;;;19.98;13.25;;;;;;;1.83;66.78;96305.59;5013711;28;24428;-72
2022/03/02 09:54:31;;;;;;;17.90;13.32;;;;;;;1.88;67.06;96313.16;5013555;28;24431;-71
2022/03/02 09:57:02;;;;;;;21.20;11.95;;;;;;;1.92;65.62;96307.09;5013549;28;24447;-71
2022/03/02 09:59:35;;;;;;;18.13;13.48;;;;;;;1.86;64.52;96309.81;5013722;28;24514;-71
2022/03/02 10:02:02;;;;;;;17.95;13.93;;;;;;;1.83;64.25;96309.84;5013720;28;24519;-72
2022/03/02 10:04:30;;;;;;;16.33;12.45;;;;;;;1.89;63.33;96302.06;5013744;28;24436;-70
2022/03/02 10:07:26;;;;;;;13.80;11.57;;;;;;;2.07;63.40;96300.84;5013537;28;24835;-72
2022/03/02 10:09:51;;;;;;;13.90;12.00;;;;;;;2.16;66.73;96298.94;5013444;28;24446;-72
2022/03/02 10:12:20;;;;;;;14.38;12.02;;;;;;;2.26;67.24;96291.06;5013527;28;24515;-72
2022/03/02 10:14:49;;;;;;;15.75;12.32;;;;;;;2.29;67.20;96293.56;5014989;28;24849;-72
2022/03/02 10:17:20;;;;;;;12.68;11.35;;;;;;;2.43;66.44;96291.53;5019423;28;25005;-72
2022/03/02 10:19:53;;;;;;;15.00;11.95;;;;;;;2.48;69.11;96296.53;5019257;28;25071;-72
2022/03/02 10:22:37;;;;;;;16.65;12.30;;;;;;;2.61;69.35;96296.25;5016104;28;24421;-71
2022/03/02 10:25:07;;;;;;;16.98;12.35;;;;;;;2.68;68.58;96289.28;5013525;28;24413;-72
2022/03/02 10:27:36;;;;;;;14.13;12.23;;;;;;;2.81;70.59;96282.13;5013599;28;24823;-73
2022/03/02 10:30:07;;;;;;;18.33;12.40;;;;;;;2.95;67.81;96285.19;5012969;28;24432;-72
2022/03/02 10:32:35;;;;;;;17.70;13.13;;;;;;;2.90;67.61;96287.88;5013203;28;24429;-72
2022/03/02 10:35:06;;;;;;;14.43;12.88;;;;;;;2.96;67.72;96297.09;5012917;28;24451;-72
2022/03/02 10:37:35;;;;;;;16.42;12.80;;;;;;;2.98;65.27;96295.38;5012839;28;24451;-71
2022/03/02 10:40:09;;;;;;;19.83;12.93;;;;;;;3.07;67.48;96297.69;5011770;28;24416;-72
2022/03/02 10:42:39;;;;;;;21.88;12.95;;;;;;;3.09;66.78;96300.22;5012754;28;24460;-72
2022/03/02 10:45:18;;;;;;;17.98;12.85;;;;;;;3.07;67.55;96299.41;5012963;28;24427;-72
2022/03/02 10:48:02;;;;;;;18.42;13.07;;;;;;;3.07;64.57;96299.41;5012701;28;24418;-72
2022/03/02 10:50:30;;;;;;;18.25;12.50;;;;;;;3.20;66.09;96305.06;5011878;28;24441;-72
2022/03/02 10:52:58;;;;;;;17.27;11.98;;;;;;;3.35;65.75;96302.13;5012371;28;25027;-72
2022/03/02 10:55:26;;;;;;;18.10;12.20;;;;;;;3.47;65.24;96294.09;5013102;28;24423;-72
2022/03/02 10:57:55;;;;;;;15.43;12.07;;;;;;;3.61;65.31;96276.66;5012392;28;24437;-72
2022/03/02 11:00:25;;;;;;;18.30;12.50;;;;;;;3.75;65.18;96278.00;5013182;28;24564;-72
2022/03/02 11:02:57;;;;;;;20.40;13.18;;;;;;;3.93;63.16;96271.50;5012563;28;24424;-72
2022/03/02 11:05:25;;;;;;;19.45;12.80;;;;;;;4.03;62.08;96270.34;5012281;28;24523;-72
2022/03/02 11:07:52;;;;;;;13.57;12.07;;;;;;;4.01;62.35;96269.59;5012372;28;24428;-72
2022/03/02 11:10:21;;;;;;;19.10;12.75;;;;;;;4.00;61.49;96267.88;5012539;28;24424;-72
2022/03/02 11:12:49;;;;;;;19.33;12.63;;;;;;;4.12;62.36;96263.25;5052011;23;24774;-73
2022/03/02 11:15:18;;;;;;;18.95;12.68;;;;;;;4.18;60.84;96261.38;5052776;28;24550;-73
2022/03/02 11:18:03;;;;;;;14.90;12.52;;;;;;;4.20;61.31;96259.63;5052046;28;24447;-73
2022/03/02 11:20:30;;;;;;;18.50;13.70;;;;;;;4.13;59.63;96254.66;5042232;28;24915;-74
2022/03/02 11:22:59;;;;;;;18.33;13.60;;;;;;;4.15;59.63;96252.03;5051915;28;24426;-74